sensor_id;sensor_type;location;lat;lon;timestamp;pressure;altitude;pressure_sealevel;temperature;humidity
76084;BME280;64789;0.000;0.000;2023-06-14T00:01:50;93427.19;;;15.00;84.87
76084;BME280;64789;0.000;0.000;2023-06-14T00:04:15;93418.03;;;15.00;84.97
76084;BME280;64789;0.000;0.000;2023-06-14T00:06:46;93416.25;;;15.04;85.29
76084;BME280;64789;0.000;0.000;2023-06-14T00:09:12;93408.53;;;15.05;85.04
76084;BME280;64789;0.000;0.000;2023-06-14T00:11:41;93416.84;;;15.03;84.87
76084;BME280;64789;0.000;0.000;2023-06-14T00:14:06;93418.16;;;15.02;85.40
76084;BME280;64789;0.000;0.000;2023-06-14T00:16:32;93408.25;;;15.01;85.01
76084;BME280;64789;0.000;0.000;2023-06-14T00:18:58;93409.59;;;15.00;85.09
76084;BME280;64789;0.000;0.000;2023-06-14T00:21:24;93409.72;;;15.02;85.33
76084;BME280;64789;0.000;0.000;2023-06-14T00:23:50;93408.53;;;15.05;84.91
76084;BME280;64789;0.000;0.000;2023-06-14T00:26:15;93401.72;;;15.08;85.13
76084;BME280;64789;0.000;0.000;2023-06-14T00:28:43;93407.78;;;15.04;85.16
76084;BME280;64789;0.000;0.000;2023-06-14T00:31:08;93408.53;;;15.05;85.20
76084;BME280;64789;0.000;0.000;2023-06-14T00:33:34;93404.69;;;15.10;85.04
76084;BME280;64789;0.000;0.000;2023-06-14T00:35:59;93397.44;;;15.07;85.17
76084;BME280;64789;0.000;0.000;2023-06-14T00:38:25;93406.19;;;15.11;84.70
76084;BME280;64789;0.000;0.000;2023-06-14T00:40:50;93407.66;;;15.12;84.89
76084;BME280;64789;0.000;0.000;2023-06-14T00:43:16;93399.81;;;15.10;84.91
76084;BME280;64789;0.000;0.000;2023-06-14T00:45:42;93400.25;;;15.07;85.21
76084;BME280;64789;0.000;0.000;2023-06-14T00:48:07;93400.56;;;15.11;85.21
76084;BME280;64789;0.000;0.000;2023-06-14T00:50:34;93393.72;;;15.14;84.95
76084;BME280;64789;0.000;0.000;2023-06-14T00:53:00;93385.13;;;15.12;85.26
76084;BME280;64789;0.000;0.000;2023-06-14T00:55:26;93385.28;;;15.14;85.18
76084;BME280;64789;0.000;0.000;2023-06-14T00:57:55;93388.69;;;15.12;85.31
76084;BME280;64789;0.000;0.000;2023-06-14T01:00:21;93390.19;;;15.13;85.41
76084;BME280;64789;0.000;0.000;2023-06-14T01:02:46;93388.97;;;15.17;84.83
76084;BME280;64789;0.000;0.000;2023-06-14T01:05:12;93389.72;;;15.17;84.87
76084;BME280;64789;0.000;0.000;2023-06-14T01:10:40;93395.22;;;15.15;84.99
76084;BME280;64789;0.000;0.000;2023-06-14T01:13:19;93386.78;;;15.15;84.83
76084;BME280;64789;0.000;0.000;2023-06-14T01:15:46;93386.78;;;15.15;85.26
76084;BME280;64789;0.000;0.000;2023-06-14T01:18:12;93385.41;;;15.16;85.03
76084;BME280;64789;0.000;0.000;2023-06-14T01:20:42;93388.41;;;15.18;85.12
76084;BME280;64789;0.000;0.000;2023-06-14T01:23:10;93382.59;;;15.16;84.71
76084;BME280;64789;0.000;0.000;2023-06-14T01:25:37;93376.84;;;15.14;85.25
76084;BME280;64789;0.000;0.000;2023-06-14T01:28:05;93386.03;;;15.14;84.95
76084;BME280;64789;0.000;0.000;2023-06-14T01:30:36;93381.00;;;15.13;85.19
76084;BME280;64789;0.000;0.000;2023-06-14T01:33:02;93385.28;;;15.14;84.81
76084;BME280;64789;0.000;0.000;2023-06-14T01:35:30;93386.91;;;15.17;85.22
76084;BME280;64789;0.000;0.000;2023-06-14T01:37:56;93391.03;;;15.16;84.98
76084;BME280;64789;0.000;0.000;2023-06-14T01:40:23;93392.53;;;15.17;84.97
76084;BME280;64789;0.000;0.000;2023-06-14T01:42:49;93384.84;;;15.18;84.80
76084;BME280;64789;0.000;0.000;2023-06-14T01:45:15;93386.91;;;15.17;85.17
76084;BME280;64789;0.000;0.000;2023-06-14T01:47:41;93390.75;;;15.22;84.77
76084;BME280;64789;0.000;0.000;2023-06-14T01:50:08;93386.16;;;15.26;84.42
76084;BME280;64789;0.000;0.000;2023-06-14T01:52:33;93380.97;;;15.32;84.61
76084;BME280;64789;0.000;0.000;2023-06-14T01:54:59;93382.63;;;15.26;84.87
76084;BME280;64789;0.000;0.000;2023-06-14T01:57:27;93378.91;;;15.23;85.33
76084;BME280;64789;0.000;0.000;2023-06-14T01:59:53;93380.09;;;15.20;85.27
76084;BME280;64789;0.000;0.000;2023-06-14T02:02:18;93378.59;;;15.19;85.16
76084;BME280;64789;0.000;0.000;2023-06-14T02:04:44;93381.56;;;15.21;84.82
76084;BME280;64789;0.000;0.000;2023-06-14T02:07:12;93385.88;;;15.22;85.19
76084;BME280;64789;0.000;0.000;2023-06-14T02:09:40;93384.97;;;15.20;85.41
76084;BME280;64789;0.000;0.000;2023-06-14T02:12:06;93389.72;;;15.17;85.21
76084;BME280;64789;0.000;0.000;2023-06-14T02:14:32;93397.88;;;15.13;85.10
76084;BME280;64789;0.000;0.000;2023-06-14T02:16:59;93402.03;;;15.12;85.11
76084;BME280;64789;0.000;0.000;2023-06-14T02:19:26;93401.28;;;15.11;84.74
76084;BME280;64789;0.000;0.000;2023-06-14T02:21:52;93402.91;;;15.14;84.81
76084;BME280;64789;0.000;0.000;2023-06-14T02:24:17;93397.56;;;15.09;85.45
76084;BME280;64789;0.000;0.000;2023-06-14T02:26:43;93397.56;;;15.09;84.97
76084;BME280;64789;0.000;0.000;2023-06-14T02:29:11;93400.09;;;15.05;84.82
76084;BME280;64789;0.000;0.000;2023-06-14T02:31:40;93407.06;;;15.04;85.04
76084;BME280;64789;0.000;0.000;2023-06-14T02:34:06;93410.19;;;15.08;84.72
76084;BME280;64789;0.000;0.000;2023-06-14T02:36:34;93408.69;;;15.07;84.79
76084;BME280;64789;0.000;0.000;2023-06-14T02:38:59;93410.31;;;15.10;84.60
76084;BME280;64789;0.000;0.000;2023-06-14T02:41:25;93405.72;;;15.05;85.22
76084;BME280;64789;0.000;0.000;2023-06-14T02:43:52;93409.44;;;15.07;84.63
76084;BME280;64789;0.000;0.000;2023-06-14T02:46:18;93407.38;;;15.08;84.97
76084;BME280;64789;0.000;0.000;2023-06-14T02:48:43;93412.38;;;15.09;85.03
76084;BME280;64789;0.000;0.000;2023-06-14T02:51:09;93415.66;;;15.06;84.69
76084;BME280;64789;0.000;0.000;2023-06-14T02:53:35;93414.03;;;15.03;85.30
76084;BME280;64789;0.000;0.000;2023-06-14T02:56:02;93414.78;;;15.03;85.13
76084;BME280;64789;0.000;0.000;2023-06-14T02:58:29;93418.63;;;15.08;84.62
76084;BME280;64789;0.000;0.000;2023-06-14T03:00:55;93430.31;;;15.04;85.07
76084;BME280;64789;0.000;0.000;2023-06-14T03:03:21;93419.94;;;15.07;85.18
76084;BME280;64789;0.000;0.000;2023-06-14T03:05:53;93416.84;;;15.03;85.18
76084;BME280;64789;0.000;0.000;2023-06-14T03:08:23;93423.94;;;15.04;85.17
76084;BME280;64789;0.000;0.000;2023-06-14T03:10:53;93424.69;;;15.04;85.16
76084;BME280;64789;0.000;0.000;2023-06-14T03:13:22;93428.09;;;15.03;85.15
76084;BME280;64789;0.000;0.000;2023-06-14T03:15:50;93431.06;;;15.05;85.32
76084;BME280;64789;0.000;0.000;2023-06-14T03:18:16;93428.25;;;15.05;85.32
76084;BME280;64789;0.000;0.000;2023-06-14T03:20:42;93419.66;;;15.03;85.45
76084;BME280;64789;0.000;0.000;2023-06-14T03:23:11;93422.47;;;15.03;85.62
76084;BME280;64789;0.000;0.000;2023-06-14T03:25:37;93422.91;;;15.09;85.32
76084;BME280;64789;0.000;0.000;2023-06-14T03:28:04;93440.66;;;15.11;85.08
76084;BME280;64789;0.000;0.000;2023-06-14T03:30:31;93433.84;;;15.14;84.75
76084;BME280;64789;0.000;0.000;2023-06-14T03:32:57;93432.69;;;15.18;84.84
76084;BME280;64789;0.000;0.000;2023-06-14T03:35:25;93430.16;;;15.22;84.72
76084;BME280;64789;0.000;0.000;2023-06-14T03:37:51;93433.84;;;15.24;85.02
76084;BME280;64789;0.000;0.000;2023-06-14T03:40:17;93436.09;;;15.26;84.77
76084;BME280;64789;0.000;0.000;2023-06-14T03:42:47;93434.75;;;15.27;85.05
76084;BME280;64789;0.000;0.000;2023-06-14T03:45:12;93439.78;;;15.28;85.04
76084;BME280;64789;0.000;0.000;2023-06-14T03:47:38;93440.22;;;15.34;85.17
76084;BME280;64789;0.000;0.000;2023-06-14T03:50:04;93432.38;;;15.33;85.56
76084;BME280;64789;0.000;0.000;2023-06-14T03:52:31;93430.28;;;15.33;85.57
76084;BME280;64789;0.000;0.000;2023-06-14T03:54:58;93434.16;;;15.38;85.28
76084;BME280;64789;0.000;0.000;2023-06-14T03:57:26;93433.97;;;15.36;85.16
76084;BME280;64789;0.000;0.000;2023-06-14T03:59:53;93434.88;;;15.38;85.02
76084;BME280;64789;0.000;0.000;2023-06-14T04:02:19;93436.97;;;15.47;84.64
76084;BME280;64789;0.000;0.000;2023-06-14T04:04:45;93436.66;;;15.43;85.23
76084;BME280;64789;0.000;0.000;2023-06-14T04:07:20;93441.88;;;15.47;85.46
76084;BME280;64789;0.000;0.000;2023-06-14T04:09:46;93441.88;;;15.47;84.76
76084;BME280;64789;0.000;0.000;2023-06-14T04:12:12;93448.09;;;15.45;84.83
76084;BME280;64789;0.000;0.000;2023-06-14T04:14:38;93448.25;;;15.47;84.51
76084;BME280;64789;0.000;0.000;2023-06-14T04:17:07;93451.47;;;15.53;84.50
76084;BME280;64789;0.000;0.000;2023-06-14T04:19:32;93443.16;;;15.55;84.28
76084;BME280;64789;0.000;0.000;2023-06-14T04:21:58;93454.59;;;15.57;84.61
76084;BME280;64789;0.000;0.000;2023-06-14T04:24:26;93452.34;;;15.65;84.04
76084;BME280;64789;0.000;0.000;2023-06-14T04:26:58;93448.19;;;15.66;84.54
76084;BME280;64789;0.000;0.000;2023-06-14T04:29:24;93448.94;;;15.67;85.03
76084;BME280;64789;0.000;0.000;2023-06-14T04:31:58;93457.97;;;15.65;85.16
76084;BME280;64789;0.000;0.000;2023-06-14T04:34:27;93467.78;;;15.64;85.07
76084;BME280;64789;0.000;0.000;2023-06-14T04:37:00;93462.28;;;15.66;85.37
76084;BME280;64789;0.000;0.000;2023-06-14T04:39:38;93458.88;;;15.68;85.12
76084;BME280;64789;0.000;0.000;2023-06-14T04:42:04;93456.78;;;15.68;85.19
76084;BME280;64789;0.000;0.000;2023-06-14T04:44:31;93459.47;;;15.66;85.21
76084;BME280;64789;0.000;0.000;2023-06-14T04:46:59;93459.75;;;15.70;85.01
76084;BME280;64789;0.000;0.000;2023-06-14T04:49:24;93462.72;;;15.72;85.38
76084;BME280;64789;0.000;0.000;2023-06-14T04:51:52;93465.97;;;15.78;85.19
76084;BME280;64789;0.000;0.000;2023-06-14T04:54:24;93462.25;;;15.86;85.25
76084;BME280;64789;0.000;0.000;2023-06-14T04:56:51;93461.81;;;15.89;85.61
76084;BME280;64789;0.000;0.000;2023-06-14T04:59:21;93467.44;;;15.89;85.31
76084;BME280;64789;0.000;0.000;2023-06-14T05:01:48;93471.13;;;15.92;85.23
76084;BME280;64789;0.000;0.000;2023-06-14T05:04:15;93471.56;;;15.98;85.14
76084;BME280;64789;0.000;0.000;2023-06-14T05:06:41;93478.53;;;15.97;84.96
76084;BME280;64789;0.000;0.000;2023-06-14T05:09:07;93476.31;;;15.95;84.78
76084;BME280;64789;0.000;0.000;2023-06-14T05:11:32;93475.25;;;16.00;84.92
76084;BME280;64789;0.000;0.000;2023-06-14T05:13:59;93471.09;;;16.01;84.66
76084;BME280;64789;0.000;0.000;2023-06-14T05:16:24;93468.44;;;16.03;85.25
76084;BME280;64789;0.000;0.000;2023-06-14T05:18:52;93472.88;;;16.06;84.69
76084;BME280;64789;0.000;0.000;2023-06-14T05:21:18;93477.28;;;16.09;84.74
76084;BME280;64789;0.000;0.000;2023-06-14T05:23:44;93487.66;;;16.16;84.36
76084;BME280;64789;0.000;0.000;2023-06-14T05:26:13;93491.78;;;16.25;84.67
76084;BME280;64789;0.000;0.000;2023-06-14T05:28:38;93485.84;;;16.30;84.49
76084;BME280;64789;0.000;0.000;2023-06-14T05:31:04;93490.72;;;16.30;84.61
76084;BME280;64789;0.000;0.000;2023-06-14T05:33:29;93483.75;;;16.31;83.83
76084;BME280;64789;0.000;0.000;2023-06-14T05:35:55;93490.59;;;16.28;84.26
76084;BME280;64789;0.000;0.000;2023-06-14T05:38:21;93488.84;;;16.23;83.68
76084;BME280;64789;0.000;0.000;2023-06-14T05:40:46;93486.28;;;16.27;83.96
76084;BME280;64789;0.000;0.000;2023-06-14T05:43:12;93484.63;;;16.33;83.99
76084;BME280;64789;0.000;0.000;2023-06-14T05:45:38;93479.66;;;16.53;84.22
76084;BME280;64789;0.000;0.000;2023-06-14T05:48:03;93489.44;;;16.62;84.35
76084;BME280;64789;0.000;0.000;2023-06-14T05:50:29;93489.69;;;16.66;84.35
76084;BME280;64789;0.000;0.000;2023-06-14T05:52:55;93497.22;;;16.73;84.00
76084;BME280;64789;0.000;0.000;2023-06-14T05:55:21;93499.00;;;16.78;83.76
76084;BME280;64789;0.000;0.000;2023-06-14T05:57:47;93494.84;;;16.79;83.77
76084;BME280;64789;0.000;0.000;2023-06-14T06:00:13;93495.28;;;16.75;83.58
76084;BME280;64789;0.000;0.000;2023-06-14T06:02:45;93491.69;;;16.84;84.06
76084;BME280;64789;0.000;0.000;2023-06-14T06:05:11;93504.00;;;16.89;83.75
76084;BME280;64789;0.000;0.000;2023-06-14T06:07:37;93497.69;;;17.00;83.12
76084;BME280;64789;0.000;0.000;2023-06-14T06:10:04;93508.31;;;17.11;83.27
76084;BME280;64789;0.000;0.000;2023-06-14T06:12:30;93502.38;;;17.07;82.52
76084;BME280;64789;0.000;0.000;2023-06-14T06:14:55;93505.34;;;17.09;82.12
76084;BME280;64789;0.000;0.000;2023-06-14T06:17:21;93516.69;;;16.99;81.95
76084;BME280;64789;0.000;0.000;2023-06-14T06:19:47;93508.09;;;16.97;81.99
76084;BME280;64789;0.000;0.000;2023-06-14T06:22:12;93513.00;;;16.97;81.95
76084;BME280;64789;0.000;0.000;2023-06-14T06:24:38;93512.72;;;16.93;82.05
76084;BME280;64789;0.000;0.000;2023-06-14T06:27:03;93519.13;;;16.93;82.54
76084;BME280;64789;0.000;0.000;2023-06-14T06:29:29;93515.09;;;16.96;82.28
76084;BME280;64789;0.000;0.000;2023-06-14T06:31:55;93519.13;;;16.93;82.00
76084;BME280;64789;0.000;0.000;2023-06-14T06:34:21;93526.09;;;16.92;82.03
76084;BME280;64789;0.000;0.000;2023-06-14T06:36:47;93518.97;;;16.91;82.02
76084;BME280;64789;0.000;0.000;2023-06-14T06:39:13;93527.72;;;16.95;82.17
76084;BME280;64789;0.000;0.000;2023-06-14T06:41:40;93526.38;;;16.96;81.73
76084;BME280;64789;0.000;0.000;2023-06-14T06:44:06;93529.34;;;16.98;81.90
76084;BME280;64789;0.000;0.000;2023-06-14T06:46:32;93535.16;;;16.91;81.33
76084;BME280;64789;0.000;0.000;2023-06-14T06:48:58;93534.56;;;16.92;81.34
76084;BME280;64789;0.000;0.000;2023-06-14T06:51:24;93536.19;;;16.95;81.62
76084;BME280;64789;0.000;0.000;2023-06-14T06:53:53;93540.63;;;16.98;81.73
76084;BME280;64789;0.000;0.000;2023-06-14T06:56:19;93539.88;;;16.98;81.90
76084;BME280;64789;0.000;0.000;2023-06-14T06:58:45;93538.13;;;16.93;81.51
76084;BME280;64789;0.000;0.000;2023-06-14T07:01:10;93542.09;;;16.99;81.30
76084;BME280;64789;0.000;0.000;2023-06-14T07:03:36;93537.94;;;17.00;80.83
76084;BME280;64789;0.000;0.000;2023-06-14T07:06:02;93544.25;;;17.11;81.61
76084;BME280;64789;0.000;0.000;2023-06-14T07:08:28;93542.13;;;17.21;81.40
76084;BME280;64789;0.000;0.000;2023-06-14T07:10:53;93540.63;;;17.20;80.27
76084;BME280;64789;0.000;0.000;2023-06-14T07:13:19;93540.38;;;17.37;80.95
76084;BME280;64789;0.000;0.000;2023-06-14T07:15:44;93534.53;;;17.44;80.44
76084;BME280;64789;0.000;0.000;2023-06-14T07:18:10;93538.66;;;17.53;80.07
76084;BME280;64789;0.000;0.000;2023-06-14T07:20:35;93531.94;;;17.58;79.62
76084;BME280;64789;0.000;0.000;2023-06-14T07:23:03;93532.72;;;17.70;77.98
76084;BME280;64789;0.000;0.000;2023-06-14T07:25:29;93532.38;;;17.76;76.25
76084;BME280;64789;0.000;0.000;2023-06-14T07:27:54;93529.81;;;17.80;77.67
76084;BME280;64789;0.000;0.000;2023-06-14T07:30:20;93529.84;;;17.91;78.67
76084;BME280;64789;0.000;0.000;2023-06-14T07:32:46;93530.84;;;17.96;79.09
76084;BME280;64789;0.000;0.000;2023-06-14T07:35:11;93532.22;;;17.95;78.42
76084;BME280;64789;0.000;0.000;2023-06-14T07:37:37;93534.31;;;18.06;78.75
76084;BME280;64789;0.000;0.000;2023-06-14T07:40:02;93531.16;;;18.11;78.09
76084;BME280;64789;0.000;0.000;2023-06-14T07:42:33;93527.38;;;18.30;79.01
76084;BME280;64789;0.000;0.000;2023-06-14T07:44:58;93536.38;;;18.38;78.62
76084;BME280;64789;0.000;0.000;2023-06-14T07:47:24;93534.22;;;18.60;78.29
76084;BME280;64789;0.000;0.000;2023-06-14T07:49:50;93538.66;;;18.63;77.91
76084;BME280;64789;0.000;0.000;2023-06-14T07:52:15;93538.41;;;18.59;76.42
76084;BME280;64789;0.000;0.000;2023-06-14T07:54:41;93531.41;;;18.60;76.18
76084;BME280;64789;0.000;0.000;2023-06-14T07:57:07;93530.03;;;18.49;75.54
76084;BME280;64789;0.000;0.000;2023-06-14T07:59:32;93543.41;;;18.49;75.54
76084;BME280;64789;0.000;0.000;2023-06-14T08:01:58;93546.63;;;18.55;76.09
76084;BME280;64789;0.000;0.000;2023-06-14T08:04:24;93548.44;;;18.38;73.85
76084;BME280;64789;0.000;0.000;2023-06-14T08:06:50;93559.25;;;18.42;75.82
76084;BME280;64789;0.000;0.000;2023-06-14T08:09:16;93555.19;;;18.33;75.11
76084;BME280;64789;0.000;0.000;2023-06-14T08:11:41;93562.31;;;18.34;75.71
76084;BME280;64789;0.000;0.000;2023-06-14T08:14:07;93556.78;;;18.36;74.53
76084;BME280;64789;0.000;0.000;2023-06-14T08:16:33;93566.41;;;18.43;74.44
76084;BME280;64789;0.000;0.000;2023-06-14T08:18:58;93562.28;;;18.56;73.92
76084;BME280;64789;0.000;0.000;2023-06-14T08:21:24;93571.97;;;18.53;73.42
76084;BME280;64789;0.000;0.000;2023-06-14T08:23:54;93576.53;;;18.46;72.95
76084;BME280;64789;0.000;0.000;2023-06-14T08:26:20;93570.38;;;18.61;74.24
76084;BME280;64789;0.000;0.000;2023-06-14T08:28:46;93577.06;;;19.00;72.32
76084;BME280;64789;0.000;0.000;2023-06-14T08:31:11;93570.16;;;19.15;74.10
76084;BME280;64789;0.000;0.000;2023-06-14T08:33:38;93574.63;;;19.41;74.45
76084;BME280;64789;0.000;0.000;2023-06-14T08:36:04;93574.81;;;19.68;71.66
76084;BME280;64789;0.000;0.000;2023-06-14T08:38:30;93574.28;;;19.84;72.02
76084;BME280;64789;0.000;0.000;2023-06-14T08:40:57;93569.28;;;20.07;70.68
76084;BME280;64789;0.000;0.000;2023-06-14T08:43:23;93559.94;;;20.30;71.42
76084;BME280;64789;0.000;0.000;2023-06-14T08:45:49;93564.97;;;20.57;71.34
76084;BME280;64789;0.000;0.000;2023-06-14T08:48:19;93568.91;;;20.38;68.36
76084;BME280;64789;0.000;0.000;2023-06-14T08:50:45;93565.16;;;20.47;65.65
76084;BME280;64789;0.000;0.000;2023-06-14T08:53:12;93567.72;;;20.29;66.15
76084;BME280;64789;0.000;0.000;2023-06-14T08:55:45;93567.72;;;20.18;67.56
76084;BME280;64789;0.000;0.000;2023-06-14T08:58:10;93559.97;;;20.18;68.22
76084;BME280;64789;0.000;0.000;2023-06-14T09:00:39;93561.84;;;20.14;67.86
76084;BME280;64789;0.000;0.000;2023-06-14T09:03:06;93555.09;;;20.33;68.11
76084;BME280;64789;0.000;0.000;2023-06-14T09:05:38;93554.47;;;20.59;68.94
76084;BME280;64789;0.000;0.000;2023-06-14T09:08:05;93557.81;;;20.94;69.72
76084;BME280;64789;0.000;0.000;2023-06-14T09:10:31;93554.13;;;20.92;65.41
76084;BME280;64789;0.000;0.000;2023-06-14T09:13:02;93558.34;;;21.05;62.51
76084;BME280;64789;0.000;0.000;2023-06-14T09:15:28;93547.44;;;21.40;65.28
76084;BME280;64789;0.000;0.000;2023-06-14T09:17:54;93550.81;;;21.50;66.67
76084;BME280;64789;0.000;0.000;2023-06-14T09:20:19;93551.53;;;21.64;66.56
76084;BME280;64789;0.000;0.000;2023-06-14T09:22:45;93558.16;;;21.82;64.79
76084;BME280;64789;0.000;0.000;2023-06-14T09:25:11;93554.56;;;21.95;64.58
76084;BME280;64789;0.000;0.000;2023-06-14T09:27:40;93555.91;;;22.08;63.32
76084;BME280;64789;0.000;0.000;2023-06-14T09:30:08;93554.09;;;22.14;62.60
76084;BME280;64789;0.000;0.000;2023-06-14T09:32:38;93558.03;;;21.94;60.17
76084;BME280;64789;0.000;0.000;2023-06-14T09:35:07;93550.50;;;21.57;61.73
76084;BME280;64789;0.000;0.000;2023-06-14T09:37:33;93555.03;;;21.49;61.78
76084;BME280;64789;0.000;0.000;2023-06-14T09:39:59;93545.34;;;21.54;63.33
76084;BME280;64789;0.000;0.000;2023-06-14T09:42:25;93537.66;;;21.43;63.04
76084;BME280;64789;0.000;0.000;2023-06-14T09:44:51;93546.59;;;21.51;63.66
76084;BME280;64789;0.000;0.000;2023-06-14T09:47:18;93545.03;;;21.62;63.87
76084;BME280;64789;0.000;0.000;2023-06-14T09:49:43;93542.13;;;22.02;65.06
76084;BME280;64789;0.000;0.000;2023-06-14T09:52:14;93529.34;;;22.03;62.44
76084;BME280;64789;0.000;0.000;2023-06-14T09:54:41;93539.41;;;21.77;60.88
76084;BME280;64789;0.000;0.000;2023-06-14T09:57:11;93536.03;;;21.94;62.30
76084;BME280;64789;0.000;0.000;2023-06-14T09:59:41;93528.31;;;21.97;63.34
76084;BME280;64789;0.000;0.000;2023-06-14T10:02:10;93539.72;;;21.97;62.70
76084;BME280;64789;0.000;0.000;2023-06-14T10:04:36;93530.44;;;21.83;62.99
76084;BME280;64789;0.000;0.000;2023-06-14T10:07:02;93517.81;;;21.72;63.28
76084;BME280;64789;0.000;0.000;2023-06-14T10:09:30;93524.56;;;21.79;63.94
76084;BME280;64789;0.000;0.000;2023-06-14T10:11:55;93520.22;;;21.91;63.90
76084;BME280;64789;0.000;0.000;2023-06-14T10:14:21;93522.44;;;21.93;63.54
76084;BME280;64789;0.000;0.000;2023-06-14T10:16:59;93519.81;;;21.83;62.48
76084;BME280;64789;0.000;0.000;2023-06-14T10:19:29;93516.53;;;21.89;61.52
76084;BME280;64789;0.000;0.000;2023-06-14T10:24:44;93524.16;;;21.57;63.65
76084;BME280;64789;0.000;0.000;2023-06-14T10:27:10;93516.59;;;21.48;63.37
76084;BME280;64789;0.000;0.000;2023-06-14T10:32:19;93521.97;;;21.28;64.64
76084;BME280;64789;0.000;0.000;2023-06-14T10:34:45;93521.22;;;21.28;65.14
76084;BME280;64789;0.000;0.000;2023-06-14T10:37:12;93515.56;;;21.28;64.28
76084;BME280;64789;0.000;0.000;2023-06-14T10:39:42;93524.06;;;21.28;64.64
76084;BME280;64789;0.000;0.000;2023-06-14T10:42:08;93528.28;;;21.13;64.39
76084;BME280;64789;0.000;0.000;2023-06-14T10:44:49;93519.16;;;21.15;64.16
76084;BME280;64789;0.000;0.000;2023-06-14T10:49:50;93513.47;;;21.15;62.19
76084;BME280;64789;0.000;0.000;2023-06-14T10:52:17;93505.13;;;21.19;62.17
76084;BME280;64789;0.000;0.000;2023-06-14T10:55:02;93501.66;;;21.20;64.04
76084;BME280;64789;0.000;0.000;2023-06-14T10:57:32;93505.44;;;21.38;64.66
76084;BME280;64789;0.000;0.000;2023-06-14T10:59:58;93505.81;;;21.74;64.53
76084;BME280;64789;0.000;0.000;2023-06-14T11:02:40;93502.97;;;21.87;61.97
76084;BME280;64789;0.000;0.000;2023-06-14T11:05:14;93495.91;;;22.17;64.01
76084;BME280;64789;0.000;0.000;2023-06-14T11:12:49;93483.97;;;22.21;59.77
76084;BME280;64789;0.000;0.000;2023-06-14T11:15:16;93491.03;;;22.49;60.17
76084;BME280;64789;0.000;0.000;2023-06-14T11:17:51;93476.09;;;22.35;60.09
76084;BME280;64789;0.000;0.000;2023-06-14T11:20:18;93485.94;;;22.48;61.10
76084;BME280;64789;0.000;0.000;2023-06-14T11:22:45;93480.28;;;22.18;58.08
76084;BME280;64789;0.000;0.000;2023-06-14T11:25:13;93473.69;;;22.14;61.01
76084;BME280;64789;0.000;0.000;2023-06-14T11:27:41;93480.78;;;21.99;61.03
76084;BME280;64789;0.000;0.000;2023-06-14T11:30:07;93464.25;;;22.25;62.40
76084;BME280;64789;0.000;0.000;2023-06-14T11:32:33;93468.19;;;22.63;62.03
76084;BME280;64789;0.000;0.000;2023-06-14T11:34:59;93473.78;;;22.92;61.75
76084;BME280;64789;0.000;0.000;2023-06-14T11:37:25;93469.34;;;22.89;59.67
76084;BME280;64789;0.000;0.000;2023-06-14T11:39:51;93473.97;;;22.65;54.49
76084;BME280;64789;0.000;0.000;2023-06-14T11:42:17;93466.56;;;22.60;59.79
76084;BME280;64789;0.000;0.000;2023-06-14T11:44:45;93469.00;;;22.65;59.90
76084;BME280;64789;0.000;0.000;2023-06-14T11:47:11;93467.88;;;23.04;60.08
76084;BME280;64789;0.000;0.000;2023-06-14T11:49:37;93469.44;;;23.22;57.10
76084;BME280;64789;0.000;0.000;2023-06-14T11:52:02;93466.06;;;23.10;56.06
76084;BME280;64789;0.000;0.000;2023-06-14T11:54:28;93457.72;;;22.83;56.21
76084;BME280;64789;0.000;0.000;2023-06-14T11:56:54;93456.50;;;22.88;57.90
76084;BME280;64789;0.000;0.000;2023-06-14T11:59:20;93459.16;;;23.15;57.37
76084;BME280;64789;0.000;0.000;2023-06-14T12:01:47;93441.03;;;23.09;58.22
76084;BME280;64789;0.000;0.000;2023-06-14T12:04:12;93443.72;;;22.89;58.51
76084;BME280;64789;0.000;0.000;2023-06-14T12:06:38;93435.47;;;22.64;58.96
76084;BME280;64789;0.000;0.000;2023-06-14T12:09:07;93426.00;;;22.75;58.56
76084;BME280;64789;0.000;0.000;2023-06-14T12:11:37;93419.56;;;22.90;58.13
76084;BME280;64789;0.000;0.000;2023-06-14T12:14:07;93417.66;;;22.79;59.65
76084;BME280;64789;0.000;0.000;2023-06-14T12:16:34;93414.81;;;22.63;57.63
76084;BME280;64789;0.000;0.000;2023-06-14T12:19:01;93413.50;;;22.51;59.39
76084;BME280;64789;0.000;0.000;2023-06-14T12:21:32;93418.63;;;22.39;57.72
76084;BME280;64789;0.000;0.000;2023-06-14T12:24:03;93427.91;;;22.39;58.17
76084;BME280;64789;0.000;0.000;2023-06-14T12:26:28;93423.41;;;22.34;58.94
76084;BME280;64789;0.000;0.000;2023-06-14T12:28:54;93426.06;;;22.30;58.38
76084;BME280;64789;0.000;0.000;2023-06-14T12:31:21;93428.09;;;22.28;58.88
76084;BME280;64789;0.000;0.000;2023-06-14T12:33:47;93421.44;;;22.23;57.64
76084;BME280;64789;0.000;0.000;2023-06-14T12:36:14;93421.19;;;22.17;57.92
76084;BME280;64789;0.000;0.000;2023-06-14T12:38:40;93420.81;;;22.24;58.00
76084;BME280;64789;0.000;0.000;2023-06-14T12:41:06;93414.94;;;22.20;59.80
76084;BME280;64789;0.000;0.000;2023-06-14T12:43:33;93419.50;;;22.12;56.19
76084;BME280;64789;0.000;0.000;2023-06-14T12:45:59;93412.56;;;22.15;58.77
76084;BME280;64789;0.000;0.000;2023-06-14T12:48:24;93412.38;;;22.27;57.50
76084;BME280;64789;0.000;0.000;2023-06-14T12:50:50;93415.41;;;22.15;58.51
76084;BME280;64789;0.000;0.000;2023-06-14T12:53:15;93394.16;;;22.02;57.91
76084;BME280;64789;0.000;0.000;2023-06-14T12:55:42;93404.72;;;22.00;58.49
76084;BME280;64789;0.000;0.000;2023-06-14T12:58:08;93391.13;;;21.98;59.30
76084;BME280;64789;0.000;0.000;2023-06-14T13:00:34;93395.16;;;21.93;60.20
76084;BME280;64789;0.000;0.000;2023-06-14T13:03:00;93387.91;;;21.90;59.85
76084;BME280;64789;0.000;0.000;2023-06-14T13:05:26;93400.34;;;21.83;60.00
76084;BME280;64789;0.000;0.000;2023-06-14T13:07:51;93385.63;;;21.73;61.22
76084;BME280;64789;0.000;0.000;2023-06-14T13:10:17;93392.09;;;21.60;60.83
76084;BME280;64789;0.000;0.000;2023-06-14T13:12:43;93384.47;;;21.49;60.49
76084;BME280;64789;0.000;0.000;2023-06-14T13:15:08;93388.16;;;21.38;60.95
76084;BME280;64789;0.000;0.000;2023-06-14T13:17:34;93380.72;;;21.31;62.15
76084;BME280;64789;0.000;0.000;2023-06-14T13:20:07;93398.66;;;21.20;63.81
76084;BME280;64789;0.000;0.000;2023-06-14T13:22:33;93401.72;;;21.10;62.98
76084;BME280;64789;0.000;0.000;2023-06-14T13:24:59;93396.44;;;21.05;63.94